sensor_id;sensor_type;location;lat;lon;timestamp;temperature;humidity
46117;DHT22;32591;48.102;11.772;2022-10-29T00:01:03;14.70;99.90
46117;DHT22;32591;48.102;11.772;2022-10-29T00:03:30;14.60;99.90
46117;DHT22;32591;48.102;11.772;2022-10-29T00:05:58;14.60;99.90
46117;DHT22;32591;48.102;11.772;2022-10-29T00:08:27;14.50;99.90
46117;DHT22;32591;48.102;11.772;2022-10-29T00:10:55;14.50;99.90
46117;DHT22;32591;48.102;11.772;2022-10-29T00:13:24;14.50;99.90
46117;DHT22;32591;48.102;11.772;2022-10-29T00:15:52;14.50;99.90
46117;DHT22;32591;48.102;11.772;2022-10-29T00:18:20;14.40;99.90
46117;DHT22;32591;48.102;11.772;2022-10-29T00:20:46;14.40;99.90
46117;DHT22;32591;48.102;11.772;2022-10-29T00:23:14;14.40;99.90
46117;DHT22;32591;48.102;11.772;2022-10-29T00:25:41;14.30;99.90
46117;DHT22;32591;48.102;11.772;2022-10-29T00:28:08;14.30;99.90
46117;DHT22;32591;48.102;11.772;2022-10-29T00:30:35;14.20;99.90
46117;DHT22;32591;48.102;11.772;2022-10-29T00:33:03;14.10;99.90
46117;DHT22;32591;48.102;11.772;2022-10-29T00:35:30;14.10;99.90
46117;DHT22;32591;48.102;11.772;2022-10-29T00:37:57;14.10;99.90
46117;DHT22;32591;48.102;11.772;2022-10-29T00:40:24;14.10;99.90
46117;DHT22;32591;48.102;11.772;2022-10-29T00:42:51;14.10;99.90
46117;DHT22;32591;48.102;11.772;2022-10-29T00:45:19;14.00;99.90
46117;DHT22;32591;48.102;11.772;2022-10-29T00:47:50;14.00;99.90
46117;DHT22;32591;48.102;11.772;2022-10-29T00:50:22;14.00;99.90
46117;DHT22;32591;48.102;11.772;2022-10-29T00:52:51;14.00;99.90
46117;DHT22;32591;48.102;11.772;2022-10-29T00:55:20;14.00;99.90
46117;DHT22;32591;48.102;11.772;2022-10-29T00:57:48;13.90;99.90
46117;DHT22;32591;48.102;11.772;2022-10-29T01:00:17;13.90;99.90
46117;DHT22;32591;48.102;11.772;2022-10-29T01:02:45;13.90;99.90
46117;DHT22;32591;48.102;11.772;2022-10-29T01:05:15;13.90;99.90
46117;DHT22;32591;48.102;11.772;2022-10-29T01:07:45;13.90;99.90
46117;DHT22;32591;48.102;11.772;2022-10-29T01:10:13;13.90;99.90
46117;DHT22;32591;48.102;11.772;2022-10-29T01:12:57;13.90;99.90
46117;DHT22;32591;48.102;11.772;2022-10-29T01:15:38;13.90;99.90
46117;DHT22;32591;48.102;11.772;2022-10-29T01:18:13;13.90;99.90
46117;DHT22;32591;48.102;11.772;2022-10-29T01:21:19;13.80;99.90
46117;DHT22;32591;48.102;11.772;2022-10-29T01:24:32;13.70;99.90
46117;DHT22;32591;48.102;11.772;2022-10-29T01:27:43;13.70;99.90
46117;DHT22;32591;48.102;11.772;2022-10-29T01:30:20;13.60;99.90
46117;DHT22;32591;48.102;11.772;2022-10-29T01:33:05;13.60;99.90
46117;DHT22;32591;48.102;11.772;2022-10-29T01:35:42;13.50;99.90
46117;DHT22;32591;48.102;11.772;2022-10-29T01:38:21;13.50;99.90
46117;DHT22;32591;48.102;11.772;2022-10-29T01:40:57;13.40;99.90
46117;DHT22;32591;48.102;11.772;2022-10-29T01:43:33;13.30;99.90
46117;DHT22;32591;48.102;11.772;2022-10-29T01:46:07;13.30;99.90
46117;DHT22;32591;48.102;11.772;2022-10-29T01:48:41;13.20;99.90
46117;DHT22;32591;48.102;11.772;2022-10-29T01:51:15;13.20;99.90
46117;DHT22;32591;48.102;11.772;2022-10-29T01:53:45;13.20;99.90
46117;DHT22;32591;48.102;11.772;2022-10-29T01:56:13;13.20;99.90
46117;DHT22;32591;48.102;11.772;2022-10-29T01:58:44;13.20;99.90
46117;DHT22;32591;48.102;11.772;2022-10-29T02:01:24;13.10;99.90
46117;DHT22;32591;48.102;11.772;2022-10-29T02:04:08;13.10;99.90
46117;DHT22;32591;48.102;11.772;2022-10-29T02:06:53;13.00;99.90
46117;DHT22;32591;48.102;11.772;2022-10-29T02:09:30;12.90;99.90
46117;DHT22;32591;48.102;11.772;2022-10-29T02:12:07;12.90;99.90
46117;DHT22;32591;48.102;11.772;2022-10-29T02:14:39;12.70;99.90
46117;DHT22;32591;48.102;11.772;2022-10-29T02:17:09;12.90;99.90
46117;DHT22;32591;48.102;11.772;2022-10-29T02:19:38;12.80;99.90
46117;DHT22;32591;48.102;11.772;2022-10-29T02:22:05;12.80;99.90
46117;DHT22;32591;48.102;11.772;2022-10-29T02:24:32;12.80;99.90
46117;DHT22;32591;48.102;11.772;2022-10-29T02:26:59;12.70;99.90
46117;DHT22;32591;48.102;11.772;2022-10-29T02:29:26;12.60;99.90
46117;DHT22;32591;48.102;11.772;2022-10-29T02:31:53;12.60;99.90
46117;DHT22;32591;48.102;11.772;2022-10-29T02:34:20;12.60;99.90
46117;DHT22;32591;48.102;11.772;2022-10-29T02:36:48;12.60;99.90
46117;DHT22;32591;48.102;11.772;2022-10-29T02:39:15;12.60;99.90
46117;DHT22;32591;48.102;11.772;2022-10-29T02:41:42;12.50;99.90
46117;DHT22;32591;48.102;11.772;2022-10-29T02:44:10;12.50;99.90
46117;DHT22;32591;48.102;11.772;2022-10-29T02:46:37;12.50;99.90
46117;DHT22;32591;48.102;11.772;2022-10-29T02:49:04;12.40;99.90
46117;DHT22;32591;48.102;11.772;2022-10-29T02:51:32;12.40;99.90
46117;DHT22;32591;48.102;11.772;2022-10-29T02:54:00;12.40;99.90
46117;DHT22;32591;48.102;11.772;2022-10-29T02:56:27;12.40;99.90
46117;DHT22;32591;48.102;11.772;2022-10-29T02:58:54;12.40;99.90
46117;DHT22;32591;48.102;11.772;2022-10-29T03:01:21;12.40;99.90
46117;DHT22;32591;48.102;11.772;2022-10-29T03:03:48;12.40;99.90
46117;DHT22;32591;48.102;11.772;2022-10-29T03:06:17;12.30;99.90
46117;DHT22;32591;48.102;11.772;2022-10-29T03:08:45;12.30;99.90
46117;DHT22;32591;48.102;11.772;2022-10-29T03:11:14;12.30;99.90
46117;DHT22;32591;48.102;11.772;2022-10-29T03:13:42;12.30;99.90
46117;DHT22;32591;48.102;11.772;2022-10-29T03:16:09;12.30;99.90
46117;DHT22;32591;48.102;11.772;2022-10-29T03:18:36;12.30;99.90
46117;DHT22;32591;48.102;11.772;2022-10-29T03:21:03;12.30;99.90
46117;DHT22;32591;48.102;11.772;2022-10-29T03:23:30;12.30;99.90
46117;DHT22;32591;48.102;11.772;2022-10-29T03:25:57;12.20;99.90
46117;DHT22;32591;48.102;11.772;2022-10-29T03:28:26;12.20;99.90
46117;DHT22;32591;48.102;11.772;2022-10-29T03:30:55;12.20;99.90
46117;DHT22;32591;48.102;11.772;2022-10-29T03:33:22;12.20;99.90
46117;DHT22;32591;48.102;11.772;2022-10-29T03:35:55;12.20;99.90
46117;DHT22;32591;48.102;11.772;2022-10-29T03:38:23;12.20;99.90
46117;DHT22;32591;48.102;11.772;2022-10-29T03:40:51;12.20;99.90
46117;DHT22;32591;48.102;11.772;2022-10-29T03:43:18;12.20;99.90
46117;DHT22;32591;48.102;11.772;2022-10-29T03:45:50;12.20;99.90
46117;DHT22;32591;48.102;11.772;2022-10-29T03:48:17;12.20;99.90
46117;DHT22;32591;48.102;11.772;2022-10-29T03:50:44;12.10;99.90
46117;DHT22;32591;48.102;11.772;2022-10-29T03:53:19;12.20;99.90
46117;DHT22;32591;48.102;11.772;2022-10-29T03:55:46;12.20;99.90
46117;DHT22;32591;48.102;11.772;2022-10-29T03:58:15;12.20;99.90
46117;DHT22;32591;48.102;11.772;2022-10-29T04:00:42;12.20;99.90
46117;DHT22;32591;48.102;11.772;2022-10-29T04:03:11;12.20;99.90
46117;DHT22;32591;48.102;11.772;2022-10-29T04:05:38;12.20;99.90
46117;DHT22;32591;48.102;11.772;2022-10-29T04:08:05;12.30;99.90
46117;DHT22;32591;48.102;11.772;2022-10-29T04:10:31;12.30;99.90
46117;DHT22;32591;48.102;11.772;2022-10-29T04:12:58;12.30;99.90
46117;DHT22;32591;48.102;11.772;2022-10-29T04:15:25;12.30;99.90
46117;DHT22;32591;48.102;11.772;2022-10-29T04:17:52;12.30;99.90
46117;DHT22;32591;48.102;11.772;2022-10-29T04:20:21;12.40;99.90
46117;DHT22;32591;48.102;11.772;2022-10-29T04:22:49;12.40;99.90
46117;DHT22;32591;48.102;11.772;2022-10-29T04:25:16;12.50;99.90
46117;DHT22;32591;48.102;11.772;2022-10-29T04:27:44;12.60;99.90
46117;DHT22;32591;48.102;11.772;2022-10-29T04:30:11;12.60;99.90
46117;DHT22;32591;48.102;11.772;2022-10-29T04:32:38;12.70;99.90
46117;DHT22;32591;48.102;11.772;2022-10-29T04:35:06;12.80;99.90
46117;DHT22;32591;48.102;11.772;2022-10-29T04:37:34;12.90;99.90
46117;DHT22;32591;48.102;11.772;2022-10-29T04:40:02;12.90;99.90
46117;DHT22;32591;48.102;11.772;2022-10-29T04:42:34;13.00;99.90
46117;DHT22;32591;48.102;11.772;2022-10-29T04:45:02;13.10;99.90
46117;DHT22;32591;48.102;11.772;2022-10-29T04:47:29;13.10;99.90
46117;DHT22;32591;48.102;11.772;2022-10-29T04:49:56;13.10;99.90
46117;DHT22;32591;48.102;11.772;2022-10-29T04:52:23;13.20;99.90
46117;DHT22;32591;48.102;11.772;2022-10-29T04:54:51;13.20;99.90
46117;DHT22;32591;48.102;11.772;2022-10-29T04:57:18;13.20;99.90
46117;DHT22;32591;48.102;11.772;2022-10-29T04:59:45;13.20;99.90
46117;DHT22;32591;48.102;11.772;2022-10-29T05:02:12;13.30;99.90
46117;DHT22;32591;48.102;11.772;2022-10-29T05:04:39;13.30;99.90
46117;DHT22;32591;48.102;11.772;2022-10-29T05:07:06;13.30;99.90
46117;DHT22;32591;48.102;11.772;2022-10-29T05:09:33;13.40;99.90
46117;DHT22;32591;48.102;11.772;2022-10-29T05:12:02;13.40;99.90
46117;DHT22;32591;48.102;11.772;2022-10-29T05:14:29;13.40;99.90
46117;DHT22;32591;48.102;11.772;2022-10-29T05:16:56;13.50;99.90
46117;DHT22;32591;48.102;11.772;2022-10-29T05:19:23;13.50;99.90
46117;DHT22;32591;48.102;11.772;2022-10-29T05:21:50;13.50;99.90
46117;DHT22;32591;48.102;11.772;2022-10-29T05:24:17;13.50;99.90
46117;DHT22;32591;48.102;11.772;2022-10-29T05:26:44;13.50;99.90
46117;DHT22;32591;48.102;11.772;2022-10-29T05:29:13;13.50;99.90
46117;DHT22;32591;48.102;11.772;2022-10-29T05:31:40;13.60;99.90
46117;DHT22;32591;48.102;11.772;2022-10-29T05:34:07;13.60;99.90
46117;DHT22;32591;48.102;11.772;2022-10-29T05:36:34;13.60;99.90
46117;DHT22;32591;48.102;11.772;2022-10-29T05:39:00;13.60;99.90
46117;DHT22;32591;48.102;11.772;2022-10-29T05:41:27;13.60;99.90
46117;DHT22;32591;48.102;11.772;2022-10-29T05:43:54;13.60;99.90
46117;DHT22;32591;48.102;11.772;2022-10-29T05:46:23;13.60;99.90
46117;DHT22;32591;48.102;11.772;2022-10-29T05:48:51;13.60;99.90
46117;DHT22;32591;48.102;11.772;2022-10-29T05:51:18;13.60;99.90
46117;DHT22;32591;48.102;11.772;2022-10-29T05:53:46;13.60;99.90
46117;DHT22;32591;48.102;11.772;2022-10-29T05:56:13;13.60;99.90
46117;DHT22;32591;48.102;11.772;2022-10-29T05:58:40;13.70;99.90
46117;DHT22;32591;48.102;11.772;2022-10-29T06:01:09;13.70;99.90
46117;DHT22;32591;48.102;11.772;2022-10-29T06:03:37;13.70;99.90
46117;DHT22;32591;48.102;11.772;2022-10-29T06:06:05;13.70;99.90
46117;DHT22;32591;48.102;11.772;2022-10-29T06:08:32;13.70;99.90
46117;DHT22;32591;48.102;11.772;2022-10-29T06:11:00;13.80;99.90
46117;DHT22;32591;48.102;11.772;2022-10-29T06:13:28;13.70;99.90
46117;DHT22;32591;48.102;11.772;2022-10-29T06:15:57;13.70;99.90
46117;DHT22;32591;48.102;11.772;2022-10-29T06:18:25;13.70;99.90
46117;DHT22;32591;48.102;11.772;2022-10-29T06:20:56;13.70;99.90
46117;DHT22;32591;48.102;11.772;2022-10-29T06:23:24;13.70;99.90
46117;DHT22;32591;48.102;11.772;2022-10-29T06:25:52;13.80;99.90
46117;DHT22;32591;48.102;11.772;2022-10-29T06:28:19;13.80;99.90
46117;DHT22;32591;48.102;11.772;2022-10-29T06:30:47;13.90;99.90
46117;DHT22;32591;48.102;11.772;2022-10-29T06:33:15;13.90;99.90
46117;DHT22;32591;48.102;11.772;2022-10-29T06:35:42;13.90;99.90
46117;DHT22;32591;48.102;11.772;2022-10-29T06:38:11;13.90;99.90
46117;DHT22;32591;48.102;11.772;2022-10-29T06:40:39;13.90;99.90
46117;DHT22;32591;48.102;11.772;2022-10-29T06:43:08;13.90;99.90
46117;DHT22;32591;48.102;11.772;2022-10-29T06:45:37;13.90;99.90
46117;DHT22;32591;48.102;11.772;2022-10-29T06:48:04;13.90;99.90
46117;DHT22;32591;48.102;11.772;2022-10-29T06:50:32;13.90;99.90
46117;DHT22;32591;48.102;11.772;2022-10-29T06:53:01;13.90;99.90
46117;DHT22;32591;48.102;11.772;2022-10-29T06:55:31;13.90;99.90
46117;DHT22;32591;48.102;11.772;2022-10-29T06:57:59;13.90;99.90
46117;DHT22;32591;48.102;11.772;2022-10-29T07:00:28;13.90;99.90
46117;DHT22;32591;48.102;11.772;2022-10-29T07:02:55;13.90;99.90
46117;DHT22;32591;48.102;11.772;2022-10-29T07:05:22;13.90;99.90
46117;DHT22;32591;48.102;11.772;2022-10-29T07:07:53;13.90;99.90
46117;DHT22;32591;48.102;11.772;2022-10-29T07:10:21;14.00;99.90
46117;DHT22;32591;48.102;11.772;2022-10-29T07:12:49;14.00;99.90
46117;DHT22;32591;48.102;11.772;2022-10-29T07:15:17;14.00;99.90
46117;DHT22;32591;48.102;11.772;2022-10-29T07:17:53;14.10;99.90
46117;DHT22;32591;48.102;11.772;2022-10-29T07:20:21;14.20;99.90
46117;DHT22;32591;48.102;11.772;2022-10-29T07:22:48;14.20;99.90
46117;DHT22;32591;48.102;11.772;2022-10-29T07:25:15;14.20;99.90
46117;DHT22;32591;48.102;11.772;2022-10-29T07:27:42;14.30;99.90
46117;DHT22;32591;48.102;11.772;2022-10-29T07:30:11;14.40;99.90
46117;DHT22;32591;48.102;11.772;2022-10-29T07:32:38;14.50;99.90
46117;DHT22;32591;48.102;11.772;2022-10-29T07:35:05;14.50;99.90
46117;DHT22;32591;48.102;11.772;2022-10-29T07:37:33;14.60;99.90
46117;DHT22;32591;48.102;11.772;2022-10-29T07:40:00;14.70;99.90
46117;DHT22;32591;48.102;11.772;2022-10-29T07:42:27;14.90;99.90
46117;DHT22;32591;48.102;11.772;2022-10-29T07:44:54;15.00;99.90
46117;DHT22;32591;48.102;11.772;2022-10-29T07:47:23;15.00;99.90
46117;DHT22;32591;48.102;11.772;2022-10-29T07:49:50;15.00;99.90
46117;DHT22;32591;48.102;11.772;2022-10-29T07:52:16;15.20;99.90
46117;DHT22;32591;48.102;11.772;2022-10-29T07:54:43;15.30;99.90
46117;DHT22;32591;48.102;11.772;2022-10-29T07:57:11;15.30;99.90
46117;DHT22;32591;48.102;11.772;2022-10-29T07:59:38;15.50;99.90
46117;DHT22;32591;48.102;11.772;2022-10-29T08:02:07;15.70;99.90
46117;DHT22;32591;48.102;11.772;2022-10-29T08:04:35;15.90;99.90
46117;DHT22;32591;48.102;11.772;2022-10-29T08:07:02;16.10;99.90
46117;DHT22;32591;48.102;11.772;2022-10-29T08:09:29;16.20;99.90
46117;DHT22;32591;48.102;11.772;2022-10-29T08:11:56;16.20;99.90
46117;DHT22;32591;48.102;11.772;2022-10-29T08:14:23;16.30;99.90
46117;DHT22;32591;48.102;11.772;2022-10-29T08:16:52;16.40;99.90
46117;DHT22;32591;48.102;11.772;2022-10-29T08:19:19;16.40;99.90
46117;DHT22;32591;48.102;11.772;2022-10-29T08:21:47;16.50;99.90
46117;DHT22;32591;48.102;11.772;2022-10-29T08:24:14;16.50;99.90
46117;DHT22;32591;48.102;11.772;2022-10-29T08:26:41;16.60;99.90
46117;DHT22;32591;48.102;11.772;2022-10-29T08:29:09;16.60;99.90
46117;DHT22;32591;48.102;11.772;2022-10-29T08:31:36;16.60;99.90
46117;DHT22;32591;48.102;11.772;2022-10-29T08:34:03;16.60;99.90
46117;DHT22;32591;48.102;11.772;2022-10-29T08:36:30;16.70;99.90
46117;DHT22;32591;48.102;11.772;2022-10-29T08:38:58;16.70;99.90
46117;DHT22;32591;48.102;11.772;2022-10-29T08:41:33;16.80;99.90
46117;DHT22;32591;48.102;11.772;2022-10-29T08:44:17;16.80;99.90
46117;DHT22;32591;48.102;11.772;2022-10-29T08:46:53;16.90;99.90
46117;DHT22;32591;48.102;11.772;2022-10-29T08:49:27;17.00;99.90
46117;DHT22;32591;48.102;11.772;2022-10-29T08:52:02;17.00;99.90
46117;DHT22;32591;48.102;11.772;2022-10-29T08:54:33;17.00;99.90
46117;DHT22;32591;48.102;11.772;2022-10-29T08:57:07;17.10;99.90
46117;DHT22;32591;48.102;11.772;2022-10-29T08:59:42;17.20;99.90
46117;DHT22;32591;48.102;11.772;2022-10-29T09:02:16;17.30;99.90
46117;DHT22;32591;48.102;11.772;2022-10-29T09:04:43;17.40;99.90
46117;DHT22;32591;48.102;11.772;2022-10-29T09:07:27;17.50;99.90
46117;DHT22;32591;48.102;11.772;2022-10-29T09:10:24;17.60;99.90
46117;DHT22;32591;48.102;11.772;2022-10-29T09:13:13;17.70;99.90
46117;DHT22;32591;48.102;11.772;2022-10-29T09:15:58;17.70;99.90
46117;DHT22;32591;48.102;11.772;2022-10-29T09:18:37;17.80;99.90
46117;DHT22;32591;48.102;11.772;2022-10-29T09:21:22;17.90;99.90
46117;DHT22;32591;48.102;11.772;2022-10-29T09:24:00;18.00;99.90
46117;DHT22;32591;48.102;11.772;2022-10-29T09:26:42;18.10;99.90
46117;DHT22;32591;48.102;11.772;2022-10-29T09:32:24;18.20;99.90
46117;DHT22;32591;48.102;11.772;2022-10-29T09:34:59;18.30;99.90
46117;DHT22;32591;48.102;11.772;2022-10-29T09:37:34;18.30;99.90
46117;DHT22;32591;48.102;11.772;2022-10-29T09:40:16;18.40;99.90
46117;DHT22;32591;48.102;11.772;2022-10-29T09:42:49;18.40;99.90
46117;DHT22;32591;48.102;11.772;2022-10-29T09:45:18;18.50;99.90
46117;DHT22;32591;48.102;11.772;2022-10-29T09:47:54;18.60;99.90
46117;DHT22;32591;48.102;11.772;2022-10-29T09:50:30;18.80;99.90
46117;DHT22;32591;48.102;11.772;2022-10-29T09:53:03;19.00;99.40
46117;DHT22;32591;48.102;11.772;2022-10-29T09:55:37;19.20;98.60
46117;DHT22;32591;48.102;11.772;2022-10-29T09:58:06;19.40;98.20
46117;DHT22;32591;48.102;11.772;2022-10-29T10:00:35;19.60;98.40
46117;DHT22;32591;48.102;11.772;2022-10-29T10:03:06;19.80;97.50
46117;DHT22;32591;48.102;11.772;2022-10-29T10:05:57;20.00;96.70
46117;DHT22;32591;48.102;11.772;2022-10-29T10:08:26;20.20;96.10
46117;DHT22;32591;48.102;11.772;2022-10-29T10:10:54;20.30;95.70
46117;DHT22;32591;48.102;11.772;2022-10-29T10:13:26;20.40;96.20
46117;DHT22;32591;48.102;11.772;2022-10-29T10:15:57;20.60;95.50
46117;DHT22;32591;48.102;11.772;2022-10-29T10:18:26;20.80;95.70
46117;DHT22;32591;48.102;11.772;2022-10-29T10:21:03;21.00;95.40
46117;DHT22;32591;48.102;11.772;2022-10-29T10:23:43;21.20;94.70
46117;DHT22;32591;48.102;11.772;2022-10-29T10:26:31;21.40;94.50
46117;DHT22;32591;48.102;11.772;2022-10-29T10:29:09;21.50;93.70
46117;DHT22;32591;48.102;11.772;2022-10-29T10:31:38;21.60;93.90
46117;DHT22;32591;48.102;11.772;2022-10-29T10:34:14;21.80;93.00
46117;DHT22;32591;48.102;11.772;2022-10-29T10:36:45;21.90;93.30
46117;DHT22;32591;48.102;11.772;2022-10-29T10:39:25;21.90;92.00
46117;DHT22;32591;48.102;11.772;2022-10-29T10:41:55;22.00;91.50
46117;DHT22;32591;48.102;11.772;2022-10-29T10:44:26;22.10;91.60
46117;DHT22;32591;48.102;11.772;2022-10-29T10:46:56;22.20;91.80
46117;DHT22;32591;48.102;11.772;2022-10-29T10:49:30;22.30;90.70
46117;DHT22;32591;48.102;11.772;2022-10-29T10:52:00;22.40;91.30
46117;DHT22;32591;48.102;11.772;2022-10-29T10:54:33;22.50;92.00
46117;DHT22;32591;48.102;11.772;2022-10-29T10:57:04;22.60;92.00
46117;DHT22;32591;48.102;11.772;2022-10-29T10:59:51;22.70;93.20
46117;DHT22;32591;48.102;11.772;2022-10-29T11:02:25;22.90;94.60
46117;DHT22;32591;48.102;11.772;2022-10-29T11:05:02;22.80;94.60
46117;DHT22;32591;48.102;11.772;2022-10-29T11:07:38;22.80;94.60
46117;DHT22;32591;48.102;11.772;2022-10-29T11:10:11;22.80;95.30
46117;DHT22;32591;48.102;11.772;2022-10-29T11:12:41;22.90;96.90
46117;DHT22;32591;48.102;11.772;2022-10-29T11:15:15;22.90;97.00
46117;DHT22;32591;48.102;11.772;2022-10-29T11:17:50;23.00;95.60
46117;DHT22;32591;48.102;11.772;2022-10-29T11:20:22;23.00;95.00
46117;DHT22;32591;48.102;11.772;2022-10-29T11:22:58;23.20;93.70
46117;DHT22;32591;48.102;11.772;2022-10-29T11:25:34;23.20;90.80
46117;DHT22;32591;48.102;11.772;2022-10-29T11:28:08;23.20;91.30
46117;DHT22;32591;48.102;11.772;2022-10-29T11:30:55;23.20;92.80
46117;DHT22;32591;48.102;11.772;2022-10-29T11:33:32;23.20;93.00
46117;DHT22;32591;48.102;11.772;2022-10-29T11:36:13;23.30;93.10
46117;DHT22;32591;48.102;11.772;2022-10-29T11:38:49;23.30;93.00
46117;DHT22;32591;48.102;11.772;2022-10-29T11:41:24;23.30;94.00
46117;DHT22;32591;48.102;11.772;2022-10-29T11:43:52;23.40;93.50
46117;DHT22;32591;48.102;11.772;2022-10-29T11:46:28;23.40;93.60
46117;DHT22;32591;48.102;11.772;2022-10-29T11:49:07;23.40;92.90
46117;DHT22;32591;48.102;11.772;2022-10-29T11:51:50;23.40;92.80
46117;DHT22;32591;48.102;11.772;2022-10-29T11:54:35;23.40;92.90
46117;DHT22;32591;48.102;11.772;2022-10-29T11:57:12;23.50;93.30
46117;DHT22;32591;48.102;11.772;2022-10-29T11:59:58;23.60;92.70
46117;DHT22;32591;48.102;11.772;2022-10-29T12:02:46;23.50;92.40
46117;DHT22;32591;48.102;11.772;2022-10-29T12:05:29;23.50;92.20
46117;DHT22;32591;48.102;11.772;2022-10-29T12:08:13;23.50;91.80
46117;DHT22;32591;48.102;11.772;2022-10-29T12:10:51;23.50;92.50
46117;DHT22;32591;48.102;11.772;2022-10-29T12:13:31;23.40;92.10
46117;DHT22;32591;48.102;11.772;2022-10-29T12:16:13;23.50;92.10
46117;DHT22;32591;48.102;11.772;2022-10-29T12:18:55;23.60;91.90
46117;DHT22;32591;48.102;11.772;2022-10-29T12:21:34;23.70;91.60
46117;DHT22;32591;48.102;11.772;2022-10-29T12:24:17;23.70;92.10
46117;DHT22;32591;48.102;11.772;2022-10-29T12:26:53;23.80;91.80
46117;DHT22;32591;48.102;11.772;2022-10-29T12:29:27;23.80;91.40
46117;DHT22;32591;48.102;11.772;2022-10-29T12:32:04;23.90;91.40
46117;DHT22;32591;48.102;11.772;2022-10-29T12:34:39;23.90;91.30
46117;DHT22;32591;48.102;11.772;2022-10-29T12:37:11;24.00;90.80
46117;DHT22;32591;48.102;11.772;2022-10-29T12:39:45;24.00;90.10
46117;DHT22;32591;48.102;11.772;2022-10-29T12:42:18;24.00;90.10
46117;DHT22;32591;48.102;11.772;2022-10-29T12:44:53;24.00;89.80
46117;DHT22;32591;48.102;11.772;2022-10-29T12:47:31;24.00;89.80
46117;DHT22;32591;48.102;11.772;2022-10-29T12:50:12;24.10;89.50
46117;DHT22;32591;48.102;11.772;2022-10-29T12:52:54;24.20;88.40
46117;DHT22;32591;48.102;11.772;2022-10-29T12:55:25;24.30;89.00
46117;DHT22;32591;48.102;11.772;2022-10-29T12:57:52;24.40;88.60
46117;DHT22;32591;48.102;11.772;2022-10-29T13:00:47;24.40;86.50
46117;DHT22;32591;48.102;11.772;2022-10-29T13:06:46;24.20;85.50
46117;DHT22;32591;48.102;11.772;2022-10-29T13:09:18;24.40;85.90
46117;DHT22;32591;48.102;11.772;2022-10-29T13:11:48;24.50;84.80
46117;DHT22;32591;48.102;11.772;2022-10-29T13:14:20;24.50;83.00
46117;DHT22;32591;48.102;11.772;2022-10-29T13:16:59;24.50;82.90
46117;DHT22;32591;48.102;11.772;2022-10-29T13:19:40;24.60;82.20
46117;DHT22;32591;48.102;11.772;2022-10-29T13:22:49;24.50;82.30
46117;DHT22;32591;48.102;11.772;2022-10-29T13:28:50;24.50;80.90
46117;DHT22;32591;48.102;11.772;2022-10-29T13:31:42;24.40;83.70
46117;DHT22;32591;48.102;11.772;2022-10-29T13:37:53;24.40;85.00
46117;DHT22;32591;48.102;11.772;2022-10-29T13:43:40;24.20;84.90
46117;DHT22;32591;48.102;11.772;2022-10-29T13:46:36;24.20;84.40
46117;DHT22;32591;48.102;11.772;2022-10-29T13:49:11;24.20;85.50
46117;DHT22;32591;48.102;11.772;2022-10-29T13:51:47;24.20;85.50
46117;DHT22;32591;48.102;11.772;2022-10-29T13:54:24;24.10;84.80
46117;DHT22;32591;48.102;11.772;2022-10-29T13:56:57;24.00;85.40
46117;DHT22;32591;48.102;11.772;2022-10-29T13:59:37;24.10;83.70
46117;DHT22;32591;48.102;11.772;2022-10-29T14:02:38;24.00;83.00
46117;DHT22;32591;48.102;11.772;2022-10-29T14:05:18;24.00;84.90
46117;DHT22;32591;48.102;11.772;2022-10-29T14:07:50;24.00;84.70
46117;DHT22;32591;48.102;11.772;2022-10-29T14:10:24;24.00;84.30
46117;DHT22;32591;48.102;11.772;2022-10-29T14:12:56;24.00;84.00
46117;DHT22;32591;48.102;11.772;2022-10-29T14:15:24;23.90;84.70
46117;DHT22;32591;48.102;11.772;2022-10-29T14:17:51;23.80;86.10
46117;DHT22;32591;48.102;11.772;2022-10-29T14:20:20;23.80;86.40
46117;DHT22;32591;48.102;11.772;2022-10-29T14:22:49;23.70;87.30
46117;DHT22;32591;48.102;11.772;2022-10-29T14:25:32;23.70;87.00
46117;DHT22;32591;48.102;11.772;2022-10-29T14:28:08;23.70;87.40
46117;DHT22;32591;48.102;11.772;2022-10-29T14:30:43;23.60;87.70
46117;DHT22;32591;48.102;11.772;2022-10-29T14:33:24;23.50;87.80
46117;DHT22;32591;48.102;11.772;2022-10-29T14:35:55;23.60;89.00
46117;DHT22;32591;48.102;11.772;2022-10-29T14:38:36;23.50;88.40
46117;DHT22;32591;48.102;11.772;2022-10-29T14:41:09;23.40;87.70
46117;DHT22;32591;48.102;11.772;2022-10-29T14:43:37;23.40;88.70
46117;DHT22;32591;48.102;11.772;2022-10-29T14:46:11;23.40;88.30
46117;DHT22;32591;48.102;11.772;2022-10-29T14:48:47;23.30;88.40
46117;DHT22;32591;48.102;11.772;2022-10-29T14:51:20;23.20;88.40
46117;DHT22;32591;48.102;11.772;2022-10-29T14:53:54;23.20;88.60
46117;DHT22;32591;48.102;11.772;2022-10-29T14:56:30;23.20;88.10
46117;DHT22;32591;48.102;11.772;2022-10-29T14:59:01;23.20;88.50
46117;DHT22;32591;48.102;11.772;2022-10-29T15:01:43;23.10;88.10
46117;DHT22;32591;48.102;11.772;2022-10-29T15:04:18;23.20;88.50
46117;DHT22;32591;48.102;11.772;2022-10-29T15:06:47;23.20;89.00
46117;DHT22;32591;48.102;11.772;2022-10-29T15:09:15;23.20;88.60
46117;DHT22;32591;48.102;11.772;2022-10-29T15:12:00;23.20;89.90
46117;DHT22;32591;48.102;11.772;2022-10-29T15:14:36;23.10;89.60
46117;DHT22;32591;48.102;11.772;2022-10-29T15:17:16;23.00;90.00
46117;DHT22;32591;48.102;11.772;2022-10-29T15:19:47;23.00;89.70
46117;DHT22;32591;48.102;11.772;2022-10-29T15:22:20;23.00;90.00
46117;DHT22;32591;48.102;11.772;2022-10-29T15:24:51;23.00;90.30
46117;DHT22;32591;48.102;11.772;2022-10-29T15:27:21;22.90;90.30
46117;DHT22;32591;48.102;11.772;2022-10-29T15:29:50;22.90;90.80
46117;DHT22;32591;48.102;11.772;2022-10-29T15:32:18;22.70;90.70
46117;DHT22;32591;48.102;11.772;2022-10-29T15:34:48;22.60;90.80
46117;DHT22;32591;48.102;11.772;2022-10-29T15:37:25;22.50;91.10
46117;DHT22;32591;48.102;11.772;2022-10-29T15:40:09;22.40;91.30
46117;DHT22;32591;48.102;11.772;2022-10-29T15:42:39;22.20;91.60
46117;DHT22;32591;48.102;11.772;2022-10-29T15:45:15;22.10;92.20
46117;DHT22;32591;48.102;11.772;2022-10-29T15:47:54;22.00;92.70
46117;DHT22;32591;48.102;11.772;2022-10-29T15:50:25;21.80;92.60
46117;DHT22;32591;48.102;11.772;2022-10-29T15:52:59;21.70;92.80
46117;DHT22;32591;48.102;11.772;2022-10-29T15:55:31;21.60;93.00
46117;DHT22;32591;48.102;11.772;2022-10-29T15:58:02;21.40;93.20
46117;DHT22;32591;48.102;11.772;2022-10-29T16:00:31;21.30;93.80
46117;DHT22;32591;48.102;11.772;2022-10-29T16:03:08;21.20;94.00